M/V Mary Elizabeth — WCX8058 — position and weather

sailwx.info

Track history (hours):
 
Tides and Currents Weather Stations Pressure Air Temp Water Temp Dewpoint Dewpoint Depression Visibility Wind Speed Wind Dir Waves Ship Positions

M/V Mary Elizabeth

Owner: Southern Towing Company, LLC, MEMPHIS, TN. More information available from US FCC via Universal Licensing System and Coast Guard Vessel Documentation Center.

Last reported at 2018-May-05 05:17 UTC. Time now 2018-Jun-19 20:17 UTC.
Position N 38°32' W 090°16'.
Warning: this ship's position is 45 days out of date.

Length 43 m; draft 3 m.

Type: Towing. MMSI: 366917120.

Date/timePositionNaut miles runAvg speedWind from/ knotsBaromVisibWave heightAir tempDewpointWater temp
2018-May-05 05:17N 38°32' W 090°16'4 8.3
2018-May-05 04:47N 38°35' W 090°13'2 8.4
2018-May-05 04:30N 38°37' W 090°11'4 8.0
2018-May-05 04:00N 38°41' W 090°11'3 1.9
2018-May-05 02:18N 38°44' W 090°10'4 4.1
2018-May-05 01:18N 38°48' W 090°07'3 8.4
2018-May-05 00:58N 38°50' W 090°06'3 4.2
2018-May-05 00:19N 38°52' W 090°09'1 4.3
2018-May-05 00:00N 38°53' W 090°11'4 8.3
2018-May-04 23:30N 38°55' W 090°15'4 8.5
2018-May-04 23:00N 38°56' W 090°20'5 8.9
2018-May-04 22:30N 38°58' W 090°26'3 6.5
2018-May-04 21:59N 38°56' W 090°29'3 6.4
2018-May-04 21:30N 38°53' W 090°32'3 6.8
2018-May-04 21:00N 38°52' W 090°36'4 8.2
2018-May-04 20:30N 38°55' W 090°39'4 8.7
2018-May-04 20:00N 38°59' W 090°41'1 2.5
2018-May-04 19:30N 39°00' W 090°41'0 0.6
2018-May-04 19:00N 39°00' W 090°42'1 1.1
2018-May-04 18:30N 39°01' W 090°42'3 5.6
2018-May-04 18:00N 39°04' W 090°42'1 0.1
2018-May-04 10:09N 39°04' W 090°42'1 3.9
2018-May-04 09:48N 39°06' W 090°41'2 7.0
2018-May-04 09:30N 39°08' W 090°42'  
Track history (hours):
 
Tides and Currents Weather Stations Pressure Air Temp Water Temp Dewpoint Dewpoint Depression Visibility Wind Speed Wind Dir Waves Ship Positions

M/V Mary Elizabeth

Owner: Southern Towing Company, LLC, MEMPHIS, TN. More information available from US FCC via Universal Licensing System and Coast Guard Vessel Documentation Center.

Last reported at 2018-May-05 05:17 UTC. Time now 2018-Jun-19 20:17 UTC.
Position N 38°32' W 090°16'.
Warning: this ship's position is 45 days out of date.

Length 43 m; draft 3 m.

Type: Towing. MMSI: 366917120.

Date/timePositionNaut miles runAvg speedWind from/ knotsBaromVisibWave heightAir tempDewpointWater temp
2018-May-05 05:17N 38°32' W 090°16'4 8.3
2018-May-05 04:47N 38°35' W 090°13'2 8.4
2018-May-05 04:30N 38°37' W 090°11'4 8.0
2018-May-05 04:00N 38°41' W 090°11'3 1.9
2018-May-05 02:18N 38°44' W 090°10'4 4.1
2018-May-05 01:18N 38°48' W 090°07'3 8.4
2018-May-05 00:58N 38°50' W 090°06'3 4.2
2018-May-05 00:19N 38°52' W 090°09'1 4.3
2018-May-05 00:00N 38°53' W 090°11'4 8.3
2018-May-04 23:30N 38°55' W 090°15'4 8.5
2018-May-04 23:00N 38°56' W 090°20'5 8.9
2018-May-04 22:30N 38°58' W 090°26'3 6.5
2018-May-04 21:59N 38°56' W 090°29'3 6.4
2018-May-04 21:30N 38°53' W 090°32'3 6.8
2018-May-04 21:00N 38°52' W 090°36'4 8.2
2018-May-04 20:30N 38°55' W 090°39'4 8.7
2018-May-04 20:00N 38°59' W 090°41'1 2.5
2018-May-04 19:30N 39°00' W 090°41'0 0.6
2018-May-04 19:00N 39°00' W 090°42'1 1.1
2018-May-04 18:30N 39°01' W 090°42'3 5.6
2018-May-04 18:00N 39°04' W 090°42'1 0.1
2018-May-04 10:09N 39°04' W 090°42'1 3.9
2018-May-04 09:48N 39°06' W 090°41'2 7.0
2018-May-04 09:30N 39°08' W 090°42'  

Dump ship's entire track history